Time;durP1;ratioP1;P1;durP2;ratioP2;P2;SDS_P1;SDS_P2;PMS_P1;PMS_P2;Temp;Humidity;BMP_temperature;BMP_pressure;BME280_temperature;BME280_humidity;BME280_pressure;Samples;Min_cycle;Max_cycle;Signal;HPM_P1;HPM_P2
2022/07/27 00:01:09;;;;;;;0.40;0.40;;;21.50;68.60;;;21.96;54.24;94820.25;5030835;28;20640;-77
2022/07/27 00:03:37;;;;;;;0.40;0.40;;;21.50;68.60;;;21.94;54.58;94822.38;5013919;28;20203;-77
2022/07/27 00:06:04;;;;;;;0.40;0.40;;;21.50;68.80;;;21.91;54.38;94821.84;5030814;28;20231;-78
2022/07/27 00:08:31;;;;;;;0.40;0.40;;;21.50;68.70;;;21.88;53.94;94819.69;5028714;28;20234;-78
2022/07/27 00:10:58;;;;;;;0.30;0.30;;;21.50;68.60;;;21.84;54.07;94809.84;4999629;28;20224;-78
2022/07/27 00:13:25;;;;;;;0.45;0.45;;;21.50;68.60;;;21.79;54.32;94815.13;5016231;28;20228;-77
2022/07/27 00:15:53;;;;;;;0.43;0.43;;;21.40;68.50;;;21.75;54.56;94815.69;4998465;28;20221;-78
2022/07/27 00:18:20;;;;;;;0.40;0.40;;;21.40;68.80;;;21.69;54.08;94800.72;5014119;28;20709;-78
2022/07/27 00:20:47;;;;;;;0.40;0.40;;;21.30;68.70;;;21.67;54.36;94794.06;5001117;28;20260;-78
2022/07/27 00:23:15;;;;;;;0.47;0.47;;;21.30;68.70;;;21.62;54.35;94792.19;5023487;28;20266;-78
2022/07/27 00:25:42;;;;;;;0.40;0.40;;;21.20;68.60;;;21.52;54.50;94784.09;4997707;28;20703;-78
2022/07/27 00:28:09;;;;;;;0.43;0.43;;;21.20;68.70;;;21.46;54.61;94777.97;4991930;28;20570;-78
2022/07/27 00:30:36;;;;;;;0.40;0.40;;;21.10;68.60;;;21.41;54.38;94797.44;5010785;28;20604;-78
2022/07/27 00:33:04;;;;;;;0.50;0.50;;;21.10;68.60;;;21.34;54.67;94790.75;5013701;28;20224;-77
2022/07/27 00:35:31;;;;;;;0.40;0.40;;;21.00;68.60;;;21.19;55.26;94789.63;5003450;28;20224;-78
2022/07/27 00:38:02;;;;;;;0.30;0.30;;;21.00;68.80;;;21.18;55.04;94798.69;4997910;28;20208;-78
2022/07/27 00:40:29;;;;;;;0.40;0.40;;;20.90;68.80;;;21.13;54.64;94809.34;5001957;28;20188;-78
2022/07/27 00:42:56;;;;;;;0.50;0.50;;;20.90;68.90;;;21.10;55.10;94809.88;5026053;28;20208;-78
2022/07/27 00:45:23;;;;;;;0.45;0.45;;;20.70;68.90;;;21.05;55.06;94812.53;5016993;28;20202;-77
2022/07/27 00:47:50;;;;;;;0.43;0.43;;;20.70;68.90;;;21.02;55.20;94813.03;5013610;28;20576;-77
2022/07/27 00:50:21;;;;;;;0.40;0.40;;;20.60;68.90;;;20.93;54.98;94815.38;5014011;28;20204;-78
2022/07/27 00:52:48;;;;;;;0.40;0.40;;;20.60;69.10;;;20.87;55.18;94816.44;5031222;28;20250;-77
2022/07/27 00:55:15;;;;;;;0.40;0.40;;;20.50;69.30;;;20.81;55.56;94823.59;5007537;28;20205;-78
2022/07/27 00:57:43;;;;;;;0.40;0.40;;;20.50;69.40;;;20.71;55.69;94818.19;5013909;28;20197;-78
2022/07/27 01:00:27;;;;;;;0.40;0.40;;;20.40;69.30;;;20.61;55.32;94822.38;5041699;28;20298;-78
2022/07/27 01:02:54;;;;;;;0.40;0.40;;;20.30;69.00;;;20.55;55.03;94826.06;5030559;28;20207;-77
2022/07/27 01:05:24;;;;;;;0.40;0.40;;;20.20;69.00;;;20.44;55.21;94821.75;5015595;28;20299;-78
2022/07/27 01:08:04;;;;;;;0.40;0.40;;;20.20;69.20;;;;;;5012203;28;20224;-77
2022/07/27 01:10:31;;;;;;;0.45;0.45;;;20.10;69.20;;;20.26;55.38;94831.75;5014591;28;20213;-78
2022/07/27 01:12:58;;;;;;;0.40;0.40;;;20.00;69.40;;;20.17;55.44;94829.81;5009077;28;20221;-77
2022/07/27 01:15:26;;;;;;;0.50;0.50;;;19.90;69.60;;;20.13;56.07;94837.50;5007121;28;20572;-77
2022/07/27 01:17:53;;;;;;;0.50;0.50;;;19.90;69.90;;;20.08;56.40;94829.44;5012690;28;20196;-78
2022/07/27 01:20:20;;;;;;;0.50;0.50;;;19.80;69.90;;;20.03;56.84;94834.75;5024639;28;20204;-78
2022/07/27 01:22:47;;;;;;;0.50;0.50;;;19.70;70.00;;;19.96;56.43;94832.31;5004386;28;20212;-78
2022/07/27 01:25:15;;;;;;;0.45;0.45;;;19.70;70.10;;;19.89;57.30;94831.69;5023227;28;20192;-77
2022/07/27 01:27:42;;;;;;;0.30;0.30;;;19.60;70.30;;;19.80;57.70;94826.81;5010871;28;20227;-77
2022/07/27 01:30:25;;;;;;;0.47;0.47;;;19.60;70.70;;;19.77;58.33;94829.94;5018618;28;20241;-77
2022/07/27 01:33:04;;;;;;;0.40;0.40;;;19.60;71.10;;;19.73;58.01;94828.06;5015892;28;20212;-77
2022/07/27 01:35:32;;;;;;;0.45;0.45;;;19.50;70.90;;;19.74;57.91;94829.66;5008345;28;20216;-78
2022/07/27 01:37:59;;;;;;;0.40;0.40;;;19.40;72.20;;;19.72;58.58;94824.59;4997148;28;20690;-78
2022/07/27 01:40:28;;;;;;;0.40;0.40;;;19.50;71.40;;;19.65;60.13;94822.16;5029738;28;20299;-76
2022/07/27 01:42:56;;;;;;;0.40;0.40;;;19.50;72.20;;;19.70;59.19;94825.91;5019744;28;20196;-78
2022/07/27 01:45:23;;;;;;;0.40;0.40;;;19.50;72.20;;;19.65;58.92;94818.66;5005514;28;20285;-78
2022/07/27 01:47:50;;;;;;;0.40;0.40;;;19.40;72.10;;;19.65;60.29;94822.16;5011329;28;20499;-77
2022/07/27 01:50:17;;;;;;;0.40;0.40;;;19.50;72.70;;;19.66;59.97;94825.59;5011146;28;20212;-77
2022/07/27 01:52:44;;;;;;;0.40;0.40;;;19.40;72.70;;;19.61;60.44;94820.22;4998656;28;20199;-77
2022/07/27 01:55:11;;;;;;;0.50;0.50;;;19.50;73.90;;;19.61;61.32;94818.34;5029271;28;20231;-78
2022/07/27 01:57:39;;;;;;;0.40;0.40;;;19.50;73.30;;;19.57;61.01;94822.59;4993854;28;20200;-78
2022/07/27 02:00:10;;;;;;;0.43;0.43;;;19.50;73.20;;;19.56;61.55;94825.50;4995060;28;20628;-77
2022/07/27 02:02:40;;;;;;;0.47;0.47;;;19.50;73.40;;;19.54;61.32;94827.59;5014354;28;20562;-78
2022/07/27 02:05:12;;;;;;;0.50;0.50;;;19.40;73.20;;;19.53;60.99;94824.16;5010573;28;20292;-78
2022/07/27 02:07:40;;;;;;;0.40;0.40;;;19.40;73.10;;;19.52;60.65;94820.66;5022453;28;20200;-78
2022/07/27 02:10:09;;;;;;;0.40;0.40;;;19.40;73.10;;;19.49;61.39;94809.72;4997693;28;20205;-77
2022/07/27 02:12:36;;;;;;;0.40;0.40;;;19.40;73.20;;;19.46;61.33;94819.00;5012324;28;20729;-77
2022/07/27 02:15:14;;;;;;;0.40;0.40;;;19.40;73.70;;;19.42;61.42;94801.13;5011995;28;20216;-76
2022/07/27 02:17:43;;;;;;;0.40;0.40;;;19.40;73.60;;;19.44;61.39;94804.38;5014156;28;20224;-77
2022/07/27 02:20:13;;;;;;;0.50;0.50;;;19.40;73.50;;;19.43;61.39;94806.22;5032315;28;20204;-78
2022/07/27 02:22:41;;;;;;;0.40;0.40;;;19.40;73.60;;;19.41;61.86;94803.00;5031164;28;20192;-77
2022/07/27 02:25:11;;;;;;;0.52;0.52;;;19.40;73.60;;;19.38;62.24;94811.47;5011826;28;20205;-78
2022/07/27 02:27:40;;;;;;;0.40;0.40;;;19.40;73.70;;;19.39;61.73;94804.31;5013077;28;20215;-78
2022/07/27 02:30:10;;;;;;;0.40;0.40;;;19.40;73.60;;;19.36;61.77;94811.72;4996442;28;20205;-78
2022/07/27 02:32:39;;;;;;;0.40;0.40;;;19.30;73.70;;;19.31;61.90;94810.84;5001544;28;20235;-77
2022/07/27 02:35:11;;;;;;;0.50;0.50;;;19.30;73.70;;;19.30;62.85;94811.94;5021239;28;20220;-78
2022/07/27 02:37:47;;;;;;;0.40;0.40;;;19.30;74.00;;;19.29;62.47;94816.44;5016213;28;20274;-78
2022/07/27 02:40:16;;;;;;;0.50;0.50;;;19.30;74.00;;;19.26;62.74;94808.97;5024726;28;20199;-77
2022/07/27 02:42:45;;;;;;;0.50;0.50;;;19.30;73.90;;;19.23;63.21;94804.13;5007990;28;20291;-77
2022/07/27 02:45:16;;;;;;;0.40;0.40;;;19.30;74.20;;;19.16;62.94;94799.03;5028293;28;20189;-77
2022/07/27 02:47:44;;;;;;;0.50;0.50;;;19.20;74.50;;;19.13;63.50;94807.47;5011955;28;20203;-78
2022/07/27 02:50:12;;;;;;;0.50;0.50;;;19.20;74.30;;;19.14;63.15;94808.28;4999103;28;20662;-78
2022/07/27 02:52:39;;;;;;;0.60;0.60;;;19.20;74.40;;;19.08;63.76;94799.44;5030458;28;20574;-77
2022/07/27 02:55:07;;;;;;;0.50;0.50;;;19.20;74.60;;;19.05;63.57;94802.59;5013371;28;20227;-78
2022/07/27 02:57:36;;;;;;;0.50;0.50;;;19.20;74.80;;;19.03;63.78;94805.50;4995014;28;20204;-77
2022/07/27 03:00:11;;;;;;;0.40;0.40;;;19.20;74.90;;;18.99;63.26;94809.72;4979383;28;20576;-78
2022/07/27 03:02:39;;;;;;;0.60;0.60;;;19.10;74.80;;;18.94;63.54;94799.00;5023728;28;20692;-78
2022/07/27 03:05:08;;;;;;;0.40;0.40;;;19.10;74.70;;;18.93;63.75;94812.56;5000538;28;20196;-78
2022/07/27 03:07:36;;;;;;;0.40;0.40;;;19.00;74.60;;;18.91;63.58;94811.94;5031467;28;20196;-78
2022/07/27 03:10:04;;;;;;;0.50;0.50;;;19.00;74.70;;;18.85;63.70;94809.25;5010755;28;20204;-78
2022/07/27 03:12:31;;;;;;;0.40;0.40;;;19.00;75.00;;;18.80;63.56;94816.34;5020268;28;20590;-77
2022/07/27 03:14:58;;;;;;;0.50;0.50;;;18.90;74.80;;;18.76;63.65;94821.34;4998308;28;20220;-77
2022/07/27 03:17:25;;;;;;;0.50;0.50;;;18.90;74.80;;;18.69;63.19;94821.53;5014191;28;20234;-78
2022/07/27 03:19:52;;;;;;;0.50;0.50;;;18.80;74.90;;;18.64;63.61;94808.19;5019584;28;20208;-78
2022/07/27 03:22:20;;;;;;;0.50;0.50;;;18.80;75.00;;;18.62;63.78;94815.56;5012947;28;20220;-78
2022/07/27 03:24:47;;;;;;;0.50;0.50;;;18.70;75.10;;;18.63;63.50;94819.06;5020799;28;20196;-78
2022/07/27 03:27:15;;;;;;;0.50;0.50;;;18.60;75.00;;;18.62;62.68;94820.88;5012095;28;20754;-77
2022/07/27 03:29:42;;;;;;;0.40;0.40;;;18.60;75.00;;;18.60;62.76;94815.00;4995178;28;20205;-78
2022/07/27 03:32:09;;;;;;;0.60;0.60;;;18.60;75.00;;;18.64;62.75;94816.16;4997338;28;20314;-78
2022/07/27 03:34:36;;;;;;;0.50;0.50;;;18.50;75.00;;;18.63;62.27;94813.75;4996216;28;20245;-78
2022/07/27 03:37:03;;;;;;;0.50;0.50;;;18.50;75.00;;;18.69;62.35;94818.88;5008300;28;20220;-77
2022/07/27 03:39:30;;;;;;;0.50;0.50;;;18.50;75.00;;;18.70;62.02;94815.16;5030153;28;20200;-77
2022/07/27 03:41:57;;;;;;;0.40;0.40;;;18.50;75.10;;;18.74;61.71;94818.13;4994517;28;20243;-77
2022/07/27 03:44:24;;;;;;;0.47;0.47;;;18.50;75.00;;;18.78;61.62;94829.06;5015419;28;20600;-78
2022/07/27 03:46:51;;;;;;;0.45;0.45;;;18.50;75.00;;;18.81;62.04;94834.69;5006481;28;20235;-76
2022/07/27 03:49:18;;;;;;;0.40;0.40;;;18.50;75.00;;;18.82;61.54;94833.66;5001132;28;20203;-78
2022/07/27 03:51:46;;;;;;;0.50;0.50;;;18.50;75.00;;;18.86;61.67;94831.31;5018581;28;20325;-78
2022/07/27 03:54:13;;;;;;;0.40;0.40;;;18.60;75.00;;;18.90;61.12;94829.75;5035021;28;20215;-79
2022/07/27 03:56:40;;;;;;;0.50;0.50;;;18.50;74.70;;;18.88;61.24;94838.00;5016889;28;20617;-77
2022/07/27 03:59:07;;;;;;;0.50;0.50;;;18.60;74.60;;;18.91;60.80;94825.25;5034258;28;20203;-79
2022/07/27 04:01:35;;;;;;;0.50;0.50;;;18.50;74.40;;;18.91;60.95;94828.75;5005579;28;20220;-77
2022/07/27 04:04:02;;;;;;;0.50;0.50;;;18.60;74.40;;;18.96;60.53;94828.00;5013368;28;20196;-79
2022/07/27 04:06:29;;;;;;;0.50;0.50;;;18.60;74.40;;;18.98;60.77;94831.22;5000840;28;20224;-78
2022/07/27 04:08:56;;;;;;;0.50;0.50;;;18.70;74.30;;;19.01;60.46;94828.06;5015352;28;20192;-79
2022/07/27 04:11:35;;;;;;;0.40;0.40;;;18.70;74.30;;;19.02;60.73;94833.13;5015017;28;20216;-78
2022/07/27 04:14:11;;;;;;;0.40;0.40;;;18.70;74.20;;;19.06;60.36;94840.63;4984208;28;20728;-78
2022/07/27 04:16:40;;;;;;;0.50;0.50;;;18.70;74.20;;;19.03;60.17;94834.75;4998752;28;20224;-78
2022/07/27 04:19:07;;;;;;;0.40;0.40;;;18.80;74.30;;;19.11;60.37;94843.34;5024070;28;20234;-78
2022/07/27 04:21:35;;;;;;;0.43;0.43;;;18.80;74.30;;;19.12;60.47;94832.47;5041725;28;20231;-78
2022/07/27 04:24:03;;;;;;;0.40;0.40;;;18.90;74.20;;;19.18;60.28;94838.66;5013498;28;20655;-78
2022/07/27 04:26:31;;;;;;;0.40;0.40;;;18.80;74.10;;;19.22;60.06;94839.75;4994043;28;20220;-78
2022/07/27 04:28:58;;;;;;;0.45;0.45;;;18.90;74.20;;;19.22;59.91;94839.75;5013984;28;20208;-78
2022/07/27 04:31:25;;;;;;;0.43;0.43;;;18.90;74.00;;;19.25;60.26;94839.28;4998002;28;20641;-78
2022/07/27 04:33:52;;;;;;;0.40;0.40;;;18.90;73.80;;;19.28;59.94;94844.06;4998756;28;20271;-78
2022/07/27 04:36:20;;;;;;;0.40;0.40;;;18.90;73.70;;;19.32;60.05;94847.88;5010149;28;20756;-78
2022/07/27 04:38:47;;;;;;;0.50;0.50;;;19.00;73.80;;;19.34;59.90;94842.28;4996946;28;20292;-79
2022/07/27 04:41:14;;;;;;;0.50;0.50;;;19.00;73.60;;;19.40;60.07;94848.47;5034606;28;20223;-78
2022/07/27 04:43:41;;;;;;;0.40;0.40;;;19.00;73.60;;;19.43;60.01;94851.44;5013454;28;20670;-78
2022/07/27 04:46:08;;;;;;;0.47;0.47;;;19.10;73.40;;;19.48;59.44;94856.81;4997930;28;20224;-78
2022/07/27 04:48:41;;;;;;;0.40;0.40;;;19.10;73.30;;;19.54;59.62;94856.88;4999052;28;20224;-78
2022/07/27 04:51:16;;;;;;;0.50;0.50;;;19.20;73.40;;;19.59;59.82;94851.59;5000598;28;20560;-78
2022/07/27 04:53:44;;;;;;;0.50;0.50;;;19.20;73.40;;;19.66;59.55;94855.69;5013573;28;20196;-78
2022/07/27 04:56:25;;;;;;;0.50;0.50;;;19.30;73.40;;;19.73;59.91;94846.69;5029922;28;20224;-78
2022/07/27 04:58:53;;;;;;;0.50;0.50;;;19.40;73.30;;;19.78;59.49;94850.19;5029935;28;20211;-77
2022/07/27 05:01:21;;;;;;;0.50;0.50;;;19.40;73.30;;;19.87;59.64;94850.56;5015105;28;20228;-79
2022/07/27 05:03:49;;;;;;;0.50;0.50;;;19.50;73.30;;;19.96;59.38;94848.28;5033825;28;20207;-78
2022/07/27 05:06:16;;;;;;;0.40;0.40;;;19.60;73.20;;;20.00;59.19;94841.38;5033724;28;20215;-78
2022/07/27 05:08:43;;;;;;;0.40;0.40;;;19.70;73.00;;;20.11;59.03;94843.06;5033844;28;20685;-78
2022/07/27 05:11:10;;;;;;;0.40;0.40;;;19.70;72.80;;;20.15;59.29;94843.38;4994958;28;20698;-79
2022/07/27 05:13:40;;;;;;;0.40;0.40;;;19.90;73.00;;;20.21;58.46;94845.00;5006417;28;20196;-78
2022/07/27 05:16:09;;;;;;;0.40;0.40;;;19.90;72.90;;;20.33;58.81;94849.38;5000865;28;20220;-78
2022/07/27 05:18:38;;;;;;;0.40;0.40;;;20.00;72.90;;;20.36;58.81;94847.00;5008588;28;20200;-78
2022/07/27 05:21:07;;;;;;;0.40;0.40;;;20.10;72.80;;;20.46;58.19;94855.06;5006214;28;20695;-78
2022/07/27 05:23:34;;;;;;;0.50;0.50;;;20.10;72.40;;;20.53;58.52;94854.84;4998923;28;20201;-78
2022/07/27 05:26:02;;;;;;;0.45;0.45;;;20.20;72.30;;;20.59;58.21;94853.00;5015889;28;20694;-78
2022/07/27 05:28:29;;;;;;;0.40;0.40;;;20.30;72.20;;;20.65;58.48;94851.97;5005150;28;20208;-78
2022/07/27 05:30:57;;;;;;;0.38;0.38;;;20.30;72.00;;;20.70;58.14;94854.72;5022285;28;20303;-79
2022/07/27 05:33:24;;;;;;;0.50;0.50;;;20.40;72.10;;;20.78;57.97;94856.91;5015864;28;20212;-78
2022/07/27 05:35:51;;;;;;;0.40;0.40;;;20.40;71.80;;;20.83;57.42;94866.00;5014950;28;20236;-78
2022/07/27 05:38:18;;;;;;;0.40;0.40;;;20.50;71.80;;;20.90;57.90;94870.03;5023167;28;20193;-78
2022/07/27 05:40:46;;;;;;;0.40;0.40;;;20.60;71.90;;;20.98;57.52;94865.28;4979857;28;20555;-77
2022/07/27 05:43:13;;;;;;;0.40;0.40;;;20.60;71.50;;;21.04;57.73;94865.03;4995861;28;20265;-78
2022/07/27 05:45:41;;;;;;;0.40;0.40;;;20.70;71.50;;;21.12;57.27;94871.75;4999127;28;20276;-78
2022/07/27 05:48:08;;;;;;;0.40;0.40;;;20.80;71.30;;;21.18;57.17;94872.56;5012403;28;20675;-78
2022/07/27 05:50:35;;;;;;;0.30;0.30;;;20.90;71.20;;;21.24;57.00;94872.34;4995888;28;20229;-77
2022/07/27 05:53:03;;;;;;;0.40;0.40;;;20.90;70.90;;;21.32;56.95;94875.56;5012426;28;20281;-77
2022/07/27 05:55:30;;;;;;;0.30;0.30;;;21.00;70.90;;;21.39;56.80;94884.94;4995794;28;20241;-79
2022/07/27 05:57:57;;;;;;;0.40;0.40;;;21.10;70.90;;;21.46;57.03;94898.06;5024179;28;20650;-78
2022/07/27 06:00:25;;;;;;;0.40;0.40;;;21.10;70.70;;;21.53;56.45;94890.63;5031220;28;20240;-78
2022/07/27 06:02:53;;;;;;;0.30;0.30;;;21.20;70.60;;;21.58;56.74;94882.66;4981235;28;20205;-78
2022/07/27 06:05:20;;;;;;;0.40;0.40;;;21.30;70.50;;;21.67;56.44;94885.59;4995991;28;20197;-78
2022/07/27 06:08:07;;;;;;;0.40;0.40;;;21.40;70.30;;;21.79;56.29;94889.91;5012028;28;20220;-78
2022/07/27 06:10:38;;;;;;;0.50;0.50;;;21.50;70.50;;;21.87;56.06;94882.19;4998231;28;20571;-78
2022/07/27 06:13:08;;;;;;;0.40;0.40;;;21.60;70.10;;;22.04;56.12;94878.47;5014562;28;20309;-78
2022/07/27 06:15:37;;;;;;;0.40;0.40;;;21.70;70.20;;;22.18;55.92;94881.41;5009528;28;20369;-78
2022/07/27 06:18:05;;;;;;;0.50;0.50;;;21.80;70.30;;;22.33;56.13;94875.31;4995693;28;20205;-78
2022/07/27 06:20:33;;;;;;;0.32;0.32;;;22.00;70.00;;;22.44;55.02;94874.25;4995684;28;20220;-78
2022/07/27 06:23:02;;;;;;;0.40;0.40;;;22.10;69.40;;;22.54;54.82;94874.25;4995602;28;20689;-78
2022/07/27 06:25:35;;;;;;;0.30;0.30;;;22.20;70.10;;;22.60;54.54;94863.56;5011651;28;20220;-78
2022/07/27 06:28:05;;;;;;;0.40;0.40;;;22.40;69.10;;;22.73;54.13;94875.56;5011614;28;20228;-78
2022/07/27 06:30:33;;;;;;;0.40;0.40;;;22.50;68.50;;;22.79;54.68;94886.00;5011399;28;20224;-78
2022/07/27 06:33:05;;;;;;;0.40;0.40;;;22.50;68.70;;;22.87;54.56;94871.25;4978751;28;20308;-77
2022/07/27 06:35:33;;;;;;;0.30;0.30;;;22.60;68.60;;;22.94;54.31;94871.78;5012622;28;20270;-78
2022/07/27 06:38:02;;;;;;;0.40;0.40;;;22.70;68.50;;;23.05;54.36;94875.25;5015370;28;20208;-78
2022/07/27 06:40:30;;;;;;;0.40;0.40;;;22.80;68.60;;;23.11;53.78;94868.81;5008176;28;20702;-78
2022/07/27 06:42:58;;;;;;;0.40;0.40;;;22.90;68.20;;;23.17;53.53;94867.75;4995441;28;20197;-77
2022/07/27 06:45:26;;;;;;;0.40;0.40;;;22.90;68.00;;;23.24;53.49;94866.66;4995046;28;20214;-78
2022/07/27 06:47:53;;;;;;;0.40;0.40;;;23.00;67.90;;;23.23;52.91;94855.16;5029216;28;20197;-78
2022/07/27 06:50:21;;;;;;;0.40;0.40;;;23.10;67.70;;;23.34;53.13;94871.97;5009394;28;20213;-78
2022/07/27 06:52:48;;;;;;;0.40;0.40;;;23.10;67.60;;;23.38;52.78;94862.31;4995002;28;20196;-78
2022/07/27 06:55:16;;;;;;;0.40;0.40;;;23.20;67.40;;;23.42;52.65;94867.91;4998552;28;20699;-78
2022/07/27 06:57:45;;;;;;;0.40;0.40;;;23.20;67.10;;;23.46;52.80;94868.97;5010488;28;20200;-78
2022/07/27 07:00:13;;;;;;;0.30;0.30;;;23.20;67.20;;;23.49;52.53;94858.50;5010002;28;20247;-78
2022/07/27 07:02:57;;;;;;;0.30;0.30;;;23.30;67.00;;;23.53;52.06;94866.78;5011161;28;20228;-78
2022/07/27 07:05:25;;;;;;;0.32;0.32;;;23.40;66.50;;;23.55;52.14;94864.66;4994964;28;20569;-76
2022/07/27 07:07:52;;;;;;;0.30;0.30;;;23.30;66.40;;;23.58;52.18;94868.66;5010942;28;20658;-78
2022/07/27 07:10:20;;;;;;;0.30;0.30;;;23.40;66.80;;;23.61;52.17;94873.47;5012071;28;20220;-78
2022/07/27 07:12:54;;;;;;;0.30;0.30;;;23.40;66.40;;;23.61;51.95;94868.13;5004641;28;20730;-78
2022/07/27 07:15:25;;;;;;;0.30;0.30;;;23.40;66.20;;;23.64;51.90;94872.91;5030333;28;20238;-78
2022/07/27 07:17:53;;;;;;;0.40;0.40;;;23.50;66.30;;;23.66;51.87;94874.22;5014045;28;20226;-78
2022/07/27 07:20:21;;;;;;;0.40;0.40;;;23.50;66.20;;;23.74;51.53;94874.72;4997629;28;20228;-78
2022/07/27 07:22:48;;;;;;;0.30;0.30;;;23.50;66.30;;;23.76;52.16;94873.38;5010843;28;20291;-78
2022/07/27 07:25:16;;;;;;;0.30;0.30;;;23.50;66.50;;;23.81;52.02;94875.22;5010266;28;20664;-78
2022/07/27 07:27:43;;;;;;;0.30;0.30;;;23.60;66.30;;;23.86;51.85;94877.88;5011441;28;20210;-78
2022/07/27 07:30:11;;;;;;;0.40;0.40;;;23.60;66.30;;;23.92;51.91;94870.63;5030307;28;20550;-78
2022/07/27 07:32:39;;;;;;;0.40;0.40;;;23.60;66.30;;;23.96;51.89;94871.69;5014096;28;20199;-78
2022/07/27 07:35:07;;;;;;;0.43;0.43;;;23.70;66.40;;;24.02;51.55;94870.56;5030145;28;20233;-78
2022/07/27 07:37:34;;;;;;;0.40;0.40;;;23.80;66.40;;;24.07;51.52;94864.38;5021225;28;20284;-78
2022/07/27 07:40:04;;;;;;;0.30;0.30;;;23.80;66.50;;;24.12;51.24;94854.44;5001021;28;20198;-78
2022/07/27 07:42:59;;;;;;;0.30;0.30;;;23.90;66.30;;;24.16;51.19;94849.31;5010471;28;20580;-78
2022/07/27 07:45:30;;;;;;;0.60;0.60;;;23.90;66.10;;;24.22;51.07;94850.09;5020324;28;20191;-78
2022/07/27 07:47:58;;;;;;;0.30;0.30;;;24.00;65.90;;;24.28;51.03;94847.06;5009728;28;20733;-78
2022/07/27 07:50:25;;;;;;;0.40;0.40;;;24.10;66.10;;;24.34;50.86;94845.16;4994392;28;20200;-78
2022/07/27 07:52:53;;;;;;;0.40;0.40;;;24.10;65.70;;;24.41;50.79;94842.97;5013854;28;20192;-78
2022/07/27 07:55:23;;;;;;;0.40;0.40;;;24.20;65.70;;;24.47;50.70;94838.34;5013508;28;20230;-78
2022/07/27 07:57:50;;;;;;;0.40;0.40;;;24.30;65.60;;;24.52;50.68;94838.28;5012529;28;20709;-78
2022/07/27 08:00:19;;;;;;;0.30;0.30;;;24.30;65.70;;;24.60;50.49;94842.25;5012850;28;20775;-78
2022/07/27 08:02:53;;;;;;;0.40;0.40;;;24.40;65.60;;;24.67;50.40;94845.44;5013596;28;20249;-78
2022/07/27 08:05:21;;;;;;;0.32;0.32;;;24.40;65.20;;;24.73;50.25;94838.13;5011235;28;20306;-78
2022/07/27 08:07:50;;;;;;;0.30;0.30;;;24.50;65.20;;;24.80;50.05;94830.53;5030163;28;20203;-78
2022/07/27 08:10:19;;;;;;;0.30;0.30;;;24.60;65.40;;;24.89;50.23;94826.16;5006178;28;20202;-78
2022/07/27 08:12:53;;;;;;;0.30;0.30;;;24.60;65.20;;;24.93;49.89;94824.50;5010140;28;20192;-79
2022/07/27 08:15:21;;;;;;;0.30;0.30;;;24.70;64.90;;;25.07;49.80;94829.19;5011726;28;20241;-78
2022/07/27 08:18:05;;;;;;;0.30;0.30;;;24.80;65.00;;;25.16;49.88;94827.47;5014492;28;20201;-78
2022/07/27 08:20:33;;;;;;;0.30;0.30;;;24.90;64.90;;;25.26;49.42;94826.56;5013308;28;20274;-78
2022/07/27 08:23:01;;;;;;;0.30;0.30;;;25.00;64.80;;;25.36;49.00;94831.00;4997324;28;20200;-78
2022/07/27 08:25:28;;;;;;;0.40;0.40;;;25.10;64.40;;;25.44;48.91;94827.72;5027527;28;20201;-77
2022/07/27 08:27:56;;;;;;;0.40;0.40;;;25.10;64.20;;;25.50;48.50;94826.56;5000828;28;20545;-78
2022/07/27 08:30:23;;;;;;;0.50;0.50;;;25.20;63.90;;;25.53;48.35;94825.19;5020123;28;20655;-77
2022/07/27 08:32:58;;;;;;;0.40;0.40;;;25.30;63.50;;;25.56;47.98;94832.66;5016765;28;20203;-78
2022/07/27 08:35:27;;;;;;;0.50;0.50;;;25.40;63.20;;;25.61;48.27;94831.78;5006725;28;20307;-78
2022/07/27 08:37:54;;;;;;;0.50;0.50;;;25.40;63.40;;;25.65;48.37;94830.91;5014553;28;20206;-77
2022/07/27 08:40:22;;;;;;;0.30;0.30;;;25.50;63.50;;;25.72;48.56;94836.72;5006295;28;20738;-76
2022/07/27 08:43:10;;;;;;;0.50;0.50;;;25.50;63.70;;;25.82;48.53;94843.84;5011076;28;20200;-77
2022/07/27 08:45:40;;;;;;;0.30;0.30;;;25.60;63.20;;;25.89;48.34;94840.81;5022660;28;20260;-77
2022/07/27 08:48:13;;;;;;;0.40;0.40;;;25.70;63.60;;;25.97;48.12;94839.34;5007224;28;20201;-77
2022/07/27 08:50:40;;;;;;;0.30;0.30;;;25.70;62.70;;;26.03;48.12;94832.81;5031099;28;20625;-78
2022/07/27 08:53:12;;;;;;;0.30;0.30;;;25.80;63.20;;;26.12;48.13;94839.16;5013818;28;20238;-77
2022/07/27 08:55:43;;;;;;;0.30;0.30;;;25.90;63.10;;;26.23;47.65;94830.91;5014467;28;20237;-78
2022/07/27 08:58:12;;;;;;;0.50;0.50;;;26.00;62.80;;;26.34;47.44;94829.66;5011791;28;20200;-77
2022/07/27 09:00:47;;;;;;;0.38;0.38;;;26.10;62.70;;;26.40;47.74;94828.47;4985293;28;20309;-78
2022/07/27 09:03:16;;;;;;;0.30;0.30;;;26.20;62.70;;;26.51;47.32;94829.91;5029942;28;20595;-76
2022/07/27 09:05:54;;;;;;;0.30;0.30;;;26.30;62.60;;;26.61;46.99;94831.63;5014908;28;20272;-78
2022/07/27 09:08:26;;;;;;;0.30;0.30;;;26.30;62.00;;;26.71;47.10;94827.97;5000982;28;20565;-77
2022/07/27 09:10:58;;;;;;;0.40;0.40;;;26.50;62.10;;;26.82;46.82;94831.31;5004108;28;20320;-78
2022/07/27 09:13:31;;;;;;;0.30;0.30;;;26.60;62.10;;;26.90;45.95;94821.72;5030190;28;20208;-77
2022/07/27 09:16:05;;;;;;;0.30;0.30;;;26.70;61.70;;;27.02;46.58;94827.41;4994202;28;20605;-77
2022/07/27 09:19:04;;;;;;;0.30;0.30;;;26.80;61.60;;;27.13;46.75;94828.81;5027161;28;20294;-78
2022/07/27 09:21:34;;;;;;;0.30;0.30;;;27.00;61.50;;;27.27;46.23;94826.13;5012042;28;20226;-77
2022/07/27 09:24:10;;;;;;;0.30;0.30;;;27.10;61.70;;;27.41;46.04;94826.13;4997773;28;20259;-77
2022/07/27 09:27:04;;;;;;;0.30;0.30;;;27.20;61.00;;;27.53;45.85;94825.63;4999719;28;20213;-76
2022/07/27 09:29:35;;;;;;;0.30;0.30;;;27.30;60.80;;;27.67;45.63;94820.19;5012615;28;20299;-77
2022/07/27 09:32:15;;;;;;;0.28;0.28;;;27.50;60.80;;;27.77;44.43;94822.69;5012641;28;20224;-77
2022/07/27 09:34:44;;;;;;;0.30;0.30;;;27.60;60.00;;;27.89;44.54;94815.94;4995391;28;20314;-77
2022/07/27 09:37:24;;;;;;;0.20;0.20;;;27.70;60.30;;;28.03;44.21;94821.31;4996073;28;20742;-76
2022/07/27 09:40:10;;;;;;;0.30;0.30;;;27.90;60.00;;;28.20;44.76;94815.28;5008136;28;20201;-78
2022/07/27 09:42:37;;;;;;;0.30;0.30;;;28.10;60.30;;;28.39;44.58;94823.97;5001537;28;20230;-78
2022/07/27 09:45:34;;;;;;;0.30;0.30;;;28.20;60.10;;;28.64;44.30;94820.94;5032263;28;20555;-76
2022/07/27 09:48:16;;;;;;;0.30;0.30;;;28.50;59.70;;;28.84;44.25;94814.25;5029114;28;20475;-78
2022/07/27 09:50:58;;;;;;;0.30;0.30;;;28.70;60.00;;;29.03;44.05;94822.13;5015340;28;20229;-77
2022/07/27 09:53:32;;;;;;;0.30;0.30;;;28.90;59.80;;;29.19;43.95;94815.16;5016309;28;20209;-78
2022/07/27 09:56:14;;;;;;;0.30;0.30;;;29.10;58.60;;;29.34;43.46;94815.88;5028966;28;20311;-78
2022/07/27 09:58:52;;;;;;;0.30;0.30;;;29.20;57.70;;;29.51;42.72;94818.59;5024744;28;20202;-78
2022/07/27 10:01:24;;;;;;;0.30;0.30;;;29.40;57.60;;;29.66;42.86;94814.66;5031915;28;20219;-77
2022/07/27 10:03:59;;;;;;;0.30;0.30;;;29.50;57.50;;;29.81;41.93;94820.69;5015407;28;20231;-78
2022/07/27 10:06:27;;;;;;;0.30;0.30;;;29.70;56.60;;;29.90;42.05;94823.44;5017833;28;20231;-78
2022/07/27 10:08:56;;;;;;;0.28;0.28;;;29.80;56.20;;;30.00;41.58;94815.03;5028451;28;20219;-78
2022/07/27 10:11:25;;;;;;;0.30;0.30;;;29.90;56.30;;;30.10;41.63;94824.72;4995056;28;20220;-78
2022/07/27 10:13:55;;;;;;;0.30;0.30;;;30.00;55.60;;;30.20;41.73;94824.41;4995828;28;20200;-77
2022/07/27 10:16:27;;;;;;;0.30;0.30;;;30.10;55.90;;;30.31;40.85;94825.66;5009235;28;20248;-78
2022/07/27 10:19:13;;;;;;;0.30;0.30;;;30.20;55.20;;;30.41;41.01;94823.75;5011135;28;20208;-77
2022/07/27 10:21:46;;;;;;;0.40;0.40;;;30.40;55.40;;;30.53;40.84;94829.34;5012805;28;20209;-77
2022/07/27 10:24:35;;;;;;;0.30;0.30;;;30.50;54.90;;;30.68;40.43;94822.59;5013269;28;20203;-78
2022/07/27 10:27:20;;;;;;;0.20;0.20;;;30.70;55.90;;;30.83;40.15;94821.28;5013303;28;20650;-78
2022/07/27 10:29:49;;;;;;;0.30;0.30;;;30.80;55.20;;;30.98;39.95;94828.06;4992519;28;20694;-78
2022/07/27 10:32:29;;;;;;;0.22;0.22;;;30.90;53.90;;;31.14;39.09;94821.03;4995506;28;20582;-78